Sevilla Aeropuerto en Andalucia

latitud = 37° 25' 00''N | longitud = 005° 52' 45''W
34 metros sobre el nivel del mar |

Fecha, hora, temperatura, viento dirección y velocidad, humedad y presión.

  • 22-09-2018 23:00:00 | 29.20°C | Calma |0.00 km/h | 37.00% | 1016.50 hPa
  • 22-09-2018 22:00:00 | 31.20°C | Sudoeste |8.00 km/h | 32.00% | 1016.10 hPa
  • 22-09-2018 21:00:00 | 31.30°C | Sur |9.00 km/h | 24.00% | 1015.10 hPa
  • 22-09-2018 20:00:00 | 35.00°C | Sur |12.00 km/h | 19.00% | 1014.60 hPa
  • 22-09-2018 19:00:00 | 37.00°C | Sur |17.00 km/h | 15.00% | 1014.40 hPa
  • 22-09-2018 18:00:00 | 37.70°C | Sudeste |22.00 km/h | 14.00% | 1014.40 hPa
  • 22-09-2018 17:00:00 | 38.00°C | Sudeste |19.00 km/h | 17.00% | 1014.50 hPa
  • 22-09-2018 16:00:00 | 37.60°C | Este |18.00 km/h | 18.00% | 1014.90 hPa
  • 22-09-2018 15:00:00 | 36.90°C | Este |12.00 km/h | 20.00% | 1015.70 hPa
  • 22-09-2018 14:00:00 | 35.60°C | Este |12.00 km/h | 21.00% | 1016.40 hPa
  • 22-09-2018 13:00:00 | 34.20°C | Este |9.00 km/h | 24.00% | 1016.90 hPa
  • 22-09-2018 12:00:00 | 31.10°C | Nordeste |10.00 km/h | 37.00% | 1017.10 hPa
  • 22-09-2018 11:00:00 | 27.50°C | Nordeste |9.00 km/h | 48.00% | 1017.10 hPa
  • 22-09-2018 10:00:00 | 23.70°C | Norte |8.00 km/h | 66.00% | 1016.70 hPa
  • 22-09-2018 09:00:00 | 20.90°C | Nordeste |6.00 km/h | 78.00% | 1016.30 hPa
  • 22-09-2018 08:00:00 | 19.90°C | Nordeste |6.00 km/h | 81.00% | 1015.70 hPa
  • 22-09-2018 07:00:00 | 20.90°C | Nordeste |7.00 km/h | 76.00% | 1015.30 hPa
  • 22-09-2018 06:00:00 | 21.60°C | Nordeste |7.00 km/h | 82.00% | 1015.00 hPa
  • 22-09-2018 05:00:00 | 22.20°C | Calma |0.00 km/h | 81.00% | 1014.80 hPa
  • 22-09-2018 04:00:00 | 22.30°C | Sur |7.00 km/h | 78.00% | 1014.90 hPa
  • 22-09-2018 03:00:00 | 23.90°C | Este |5.00 km/h | 69.00% | 1014.90 hPa
  • 22-09-2018 02:00:00 | 25.10°C | Sur |7.00 km/h | 61.00% | 1015.10 hPa
  • 22-09-2018 01:00:00 | 26.00°C | Sur |10.00 km/h | 54.00% | 1015.00 hPa
  • 22-09-2018 00:00:00 | 26.00°C | Calma |0.00 km/h | 58.00% | 1014.50 hPa
    • Datos gráficos mensuales de Sevilla Aeropuerto: